sensor_id;sensor_type;location;lat;lon;timestamp;P1;durP1;ratioP1;P2;durP2;ratioP2
71462;SDS011;59266;52.608;13.260;2023-08-01T00:02:21;11.95;;;4.10;;
71462;SDS011;59266;52.608;13.260;2023-08-01T00:04:48;11.18;;;4.07;;
71462;SDS011;59266;52.608;13.260;2023-08-01T00:07:14;10.25;;;4.10;;
71462;SDS011;59266;52.608;13.260;2023-08-01T00:09:41;9.57;;;3.45;;
71462;SDS011;59266;52.608;13.260;2023-08-01T00:12:07;12.68;;;4.63;;
71462;SDS011;59266;52.608;13.260;2023-08-01T00:14:35;9.93;;;3.75;;
71462;SDS011;59266;52.608;13.260;2023-08-01T00:17:02;9.07;;;3.53;;
71462;SDS011;59266;52.608;13.260;2023-08-01T00:19:29;11.20;;;4.35;;
71462;SDS011;59266;52.608;13.260;2023-08-01T00:21:56;9.18;;;3.90;;
71462;SDS011;59266;52.608;13.260;2023-08-01T00:24:22;7.90;;;3.60;;
71462;SDS011;59266;52.608;13.260;2023-08-01T00:26:49;12.10;;;4.00;;
71462;SDS011;59266;52.608;13.260;2023-08-01T00:29:16;12.00;;;3.90;;
71462;SDS011;59266;52.608;13.260;2023-08-01T00:31:42;12.30;;;4.40;;
71462;SDS011;59266;52.608;13.260;2023-08-01T00:34:09;9.10;;;3.42;;
71462;SDS011;59266;52.608;13.260;2023-08-01T00:36:35;9.20;;;4.05;;
71462;SDS011;59266;52.608;13.260;2023-08-01T00:39:02;9.38;;;3.35;;
71462;SDS011;59266;52.608;13.260;2023-08-01T00:41:28;10.57;;;3.13;;
71462;SDS011;59266;52.608;13.260;2023-08-01T00:43:55;8.98;;;3.17;;
71462;SDS011;59266;52.608;13.260;2023-08-01T00:46:22;9.57;;;3.17;;
71462;SDS011;59266;52.608;13.260;2023-08-01T00:48:48;6.78;;;2.60;;
71462;SDS011;59266;52.608;13.260;2023-08-01T00:51:15;8.02;;;2.92;;
71462;SDS011;59266;52.608;13.260;2023-08-01T00:53:44;8.40;;;2.90;;
71462;SDS011;59266;52.608;13.260;2023-08-01T00:56:14;7.13;;;2.85;;
71462;SDS011;59266;52.608;13.260;2023-08-01T00:58:41;7.68;;;2.65;;
71462;SDS011;59266;52.608;13.260;2023-08-01T01:01:07;8.82;;;2.50;;
71462;SDS011;59266;52.608;13.260;2023-08-01T01:03:34;6.93;;;2.95;;
71462;SDS011;59266;52.608;13.260;2023-08-01T01:06:09;7.20;;;2.70;;
71462;SDS011;59266;52.608;13.260;2023-08-01T01:08:42;8.57;;;2.70;;
71462;SDS011;59266;52.608;13.260;2023-08-01T01:11:09;7.22;;;2.83;;
71462;SDS011;59266;52.608;13.260;2023-08-01T01:13:35;9.57;;;2.67;;
71462;SDS011;59266;52.608;13.260;2023-08-01T01:16:02;8.20;;;2.92;;
71462;SDS011;59266;52.608;13.260;2023-08-01T01:18:30;9.60;;;3.63;;
71462;SDS011;59266;52.608;13.260;2023-08-01T01:20:56;7.78;;;2.70;;
71462;SDS011;59266;52.608;13.260;2023-08-01T01:23:23;9.75;;;2.72;;
71462;SDS011;59266;52.608;13.260;2023-08-01T01:25:51;7.22;;;2.63;;
71462;SDS011;59266;52.608;13.260;2023-08-01T01:28:19;7.32;;;2.88;;
71462;SDS011;59266;52.608;13.260;2023-08-01T01:30:46;6.75;;;2.85;;
71462;SDS011;59266;52.608;13.260;2023-08-01T01:33:15;7.13;;;2.88;;
71462;SDS011;59266;52.608;13.260;2023-08-01T01:35:43;8.07;;;2.60;;
71462;SDS011;59266;52.608;13.260;2023-08-01T01:38:10;7.85;;;2.80;;
71462;SDS011;59266;52.608;13.260;2023-08-01T01:40:36;12.13;;;3.00;;
71462;SDS011;59266;52.608;13.260;2023-08-01T01:43:03;7.35;;;2.65;;
71462;SDS011;59266;52.608;13.260;2023-08-01T01:45:29;16.58;;;2.78;;
71462;SDS011;59266;52.608;13.260;2023-08-01T01:47:57;7.95;;;2.70;;
71462;SDS011;59266;52.608;13.260;2023-08-01T01:50:23;9.10;;;2.90;;
71462;SDS011;59266;52.608;13.260;2023-08-01T01:52:50;7.47;;;2.70;;
71462;SDS011;59266;52.608;13.260;2023-08-01T01:55:17;9.07;;;3.05;;
71462;SDS011;59266;52.608;13.260;2023-08-01T01:57:43;7.88;;;3.15;;
71462;SDS011;59266;52.608;13.260;2023-08-01T02:00:11;7.88;;;2.83;;
71462;SDS011;59266;52.608;13.260;2023-08-01T02:02:41;7.15;;;2.63;;
71462;SDS011;59266;52.608;13.260;2023-08-01T02:05:08;7.95;;;3.03;;
71462;SDS011;59266;52.608;13.260;2023-08-01T02:07:35;9.10;;;3.00;;
71462;SDS011;59266;52.608;13.260;2023-08-01T02:10:02;8.15;;;3.10;;
71462;SDS011;59266;52.608;13.260;2023-08-01T02:12:29;8.05;;;2.72;;
71462;SDS011;59266;52.608;13.260;2023-08-01T02:15:01;7.38;;;2.80;;
71462;SDS011;59266;52.608;13.260;2023-08-01T02:17:28;8.18;;;2.55;;
71462;SDS011;59266;52.608;13.260;2023-08-01T02:19:55;8.48;;;2.30;;
71462;SDS011;59266;52.608;13.260;2023-08-01T02:22:22;6.30;;;2.70;;
71462;SDS011;59266;52.608;13.260;2023-08-01T02:24:50;9.65;;;3.20;;
71462;SDS011;59266;52.608;13.260;2023-08-01T02:27:17;6.97;;;2.83;;
71462;SDS011;59266;52.608;13.260;2023-08-01T02:29:44;8.00;;;2.90;;
71462;SDS011;59266;52.608;13.260;2023-08-01T02:32:10;6.30;;;2.60;;
71462;SDS011;59266;52.608;13.260;2023-08-01T02:34:37;6.82;;;2.38;;
71462;SDS011;59266;52.608;13.260;2023-08-01T02:37:03;10.05;;;3.10;;
71462;SDS011;59266;52.608;13.260;2023-08-01T02:39:30;6.72;;;2.72;;
71462;SDS011;59266;52.608;13.260;2023-08-01T02:41:57;12.20;;;3.60;;
71462;SDS011;59266;52.608;13.260;2023-08-01T02:44:25;8.50;;;3.33;;
71462;SDS011;59266;52.608;13.260;2023-08-01T02:46:52;10.75;;;3.15;;
71462;SDS011;59266;52.608;13.260;2023-08-01T02:49:18;9.98;;;3.35;;
71462;SDS011;59266;52.608;13.260;2023-08-01T02:51:45;8.75;;;3.47;;
71462;SDS011;59266;52.608;13.260;2023-08-01T02:54:11;10.43;;;3.58;;
71462;SDS011;59266;52.608;13.260;2023-08-01T02:56:38;8.35;;;2.92;;
71462;SDS011;59266;52.608;13.260;2023-08-01T02:59:08;8.25;;;3.30;;
71462;SDS011;59266;52.608;13.260;2023-08-01T03:01:35;7.00;;;2.70;;
71462;SDS011;59266;52.608;13.260;2023-08-01T03:04:02;9.07;;;3.05;;
71462;SDS011;59266;52.608;13.260;2023-08-01T03:06:30;8.50;;;3.20;;
71462;SDS011;59266;52.608;13.260;2023-08-01T03:08:57;6.85;;;2.83;;
71462;SDS011;59266;52.608;13.260;2023-08-01T03:11:24;8.40;;;2.88;;
71462;SDS011;59266;52.608;13.260;2023-08-01T03:13:51;7.28;;;3.00;;
71462;SDS011;59266;52.608;13.260;2023-08-01T03:16:18;7.00;;;3.08;;
71462;SDS011;59266;52.608;13.260;2023-08-01T03:18:45;8.15;;;2.92;;
71462;SDS011;59266;52.608;13.260;2023-08-01T03:21:11;9.20;;;3.17;;
71462;SDS011;59266;52.608;13.260;2023-08-01T03:23:38;10.25;;;3.50;;
71462;SDS011;59266;52.608;13.260;2023-08-01T03:26:08;8.73;;;3.05;;
71462;SDS011;59266;52.608;13.260;2023-08-01T03:28:35;9.07;;;3.78;;
71462;SDS011;59266;52.608;13.260;2023-08-01T03:31:01;9.80;;;3.17;;
71462;SDS011;59266;52.608;13.260;2023-08-01T03:33:28;12.25;;;3.42;;
71462;SDS011;59266;52.608;13.260;2023-08-01T03:35:55;9.90;;;3.13;;
71462;SDS011;59266;52.608;13.260;2023-08-01T03:38:22;9.25;;;3.40;;
71462;SDS011;59266;52.608;13.260;2023-08-01T03:40:48;7.75;;;3.25;;
71462;SDS011;59266;52.608;13.260;2023-08-01T03:43:15;7.55;;;3.13;;
71462;SDS011;59266;52.608;13.260;2023-08-01T03:45:41;8.73;;;3.25;;
71462;SDS011;59266;52.608;13.260;2023-08-01T03:48:08;8.57;;;2.88;;
71462;SDS011;59266;52.608;13.260;2023-08-01T03:50:35;10.32;;;3.20;;
71462;SDS011;59266;52.608;13.260;2023-08-01T03:53:02;9.50;;;3.35;;
71462;SDS011;59266;52.608;13.260;2023-08-01T03:55:28;8.95;;;3.40;;
71462;SDS011;59266;52.608;13.260;2023-08-01T03:57:55;9.00;;;2.90;;
71462;SDS011;59266;52.608;13.260;2023-08-01T04:00:21;8.27;;;3.30;;
71462;SDS011;59266;52.608;13.260;2023-08-01T04:02:48;8.27;;;3.00;;
71462;SDS011;59266;52.608;13.260;2023-08-01T04:05:15;8.10;;;2.20;;
71462;SDS011;59266;52.608;13.260;2023-08-01T04:07:42;9.23;;;3.55;;
71462;SDS011;59266;52.608;13.260;2023-08-01T04:10:10;7.07;;;3.00;;
71462;SDS011;59266;52.608;13.260;2023-08-01T04:12:36;9.77;;;3.28;;
71462;SDS011;59266;52.608;13.260;2023-08-01T04:15:03;9.32;;;3.28;;
71462;SDS011;59266;52.608;13.260;2023-08-01T04:17:30;7.00;;;2.70;;
71462;SDS011;59266;52.608;13.260;2023-08-01T04:19:56;8.85;;;2.70;;
71462;SDS011;59266;52.608;13.260;2023-08-01T04:22:23;9.00;;;2.58;;
71462;SDS011;59266;52.608;13.260;2023-08-01T04:24:49;8.23;;;2.97;;
71462;SDS011;59266;52.608;13.260;2023-08-01T04:27:16;8.63;;;3.08;;
71462;SDS011;59266;52.608;13.260;2023-08-01T04:29:43;8.82;;;2.90;;
71462;SDS011;59266;52.608;13.260;2023-08-01T04:32:10;7.95;;;2.78;;
71462;SDS011;59266;52.608;13.260;2023-08-01T04:34:39;8.73;;;2.97;;
71462;SDS011;59266;52.608;13.260;2023-08-01T04:37:06;7.65;;;2.83;;
71462;SDS011;59266;52.608;13.260;2023-08-01T04:39:32;7.28;;;2.75;;
71462;SDS011;59266;52.608;13.260;2023-08-01T04:41:59;10.70;;;2.97;;
71462;SDS011;59266;52.608;13.260;2023-08-01T04:44:26;8.25;;;2.38;;
71462;SDS011;59266;52.608;13.260;2023-08-01T04:46:53;7.95;;;2.80;;
71462;SDS011;59266;52.608;13.260;2023-08-01T04:49:19;11.23;;;2.60;;
71462;SDS011;59266;52.608;13.260;2023-08-01T04:51:48;7.10;;;2.65;;
71462;SDS011;59266;52.608;13.260;2023-08-01T04:54:16;6.80;;;2.50;;
71462;SDS011;59266;52.608;13.260;2023-08-01T04:56:42;6.45;;;2.42;;
71462;SDS011;59266;52.608;13.260;2023-08-01T04:59:09;8.10;;;2.42;;
71462;SDS011;59266;52.608;13.260;2023-08-01T05:01:36;8.40;;;2.67;;
71462;SDS011;59266;52.608;13.260;2023-08-01T05:04:04;6.82;;;2.90;;
71462;SDS011;59266;52.608;13.260;2023-08-01T05:06:32;8.63;;;2.35;;
71462;SDS011;59266;52.608;13.260;2023-08-01T05:08:59;6.28;;;2.20;;
71462;SDS011;59266;52.608;13.260;2023-08-01T05:11:26;5.93;;;2.20;;
71462;SDS011;59266;52.608;13.260;2023-08-01T05:13:53;6.78;;;2.33;;
71462;SDS011;59266;52.608;13.260;2023-08-01T05:16:20;6.35;;;2.45;;
71462;SDS011;59266;52.608;13.260;2023-08-01T05:18:46;6.65;;;2.47;;
71462;SDS011;59266;52.608;13.260;2023-08-01T05:21:15;7.35;;;2.10;;
71462;SDS011;59266;52.608;13.260;2023-08-01T05:23:42;6.53;;;2.10;;
71462;SDS011;59266;52.608;13.260;2023-08-01T05:26:09;6.53;;;2.45;;
71462;SDS011;59266;52.608;13.260;2023-08-01T05:28:35;5.60;;;2.00;;
71462;SDS011;59266;52.608;13.260;2023-08-01T05:31:02;6.32;;;2.38;;
71462;SDS011;59266;52.608;13.260;2023-08-01T05:33:29;6.07;;;2.17;;
71462;SDS011;59266;52.608;13.260;2023-08-01T05:35:56;7.10;;;2.13;;
71462;SDS011;59266;52.608;13.260;2023-08-01T05:38:22;6.38;;;2.28;;
71462;SDS011;59266;52.608;13.260;2023-08-01T05:40:49;7.07;;;2.40;;
71462;SDS011;59266;52.608;13.260;2023-08-01T05:43:16;8.48;;;2.30;;
71462;SDS011;59266;52.608;13.260;2023-08-01T05:45:43;8.70;;;2.53;;
71462;SDS011;59266;52.608;13.260;2023-08-01T05:48:09;11.85;;;2.72;;
71462;SDS011;59266;52.608;13.260;2023-08-01T05:50:36;5.68;;;2.20;;
71462;SDS011;59266;52.608;13.260;2023-08-01T05:53:04;9.13;;;3.00;;
71462;SDS011;59266;52.608;13.260;2023-08-01T05:55:32;5.68;;;2.35;;
71462;SDS011;59266;52.608;13.260;2023-08-01T05:57:59;7.00;;;2.35;;
71462;SDS011;59266;52.608;13.260;2023-08-01T06:00:26;7.47;;;2.10;;
71462;SDS011;59266;52.608;13.260;2023-08-01T06:02:53;5.38;;;2.00;;
71462;SDS011;59266;52.608;13.260;2023-08-01T06:05:20;5.97;;;2.20;;
71462;SDS011;59266;52.608;13.260;2023-08-01T06:07:46;6.40;;;2.75;;
71462;SDS011;59266;52.608;13.260;2023-08-01T06:10:13;6.63;;;2.33;;
71462;SDS011;59266;52.608;13.260;2023-08-01T06:12:39;5.78;;;2.22;;
71462;SDS011;59266;52.608;13.260;2023-08-01T06:15:06;7.63;;;2.60;;
71462;SDS011;59266;52.608;13.260;2023-08-01T06:17:33;7.57;;;2.40;;
71462;SDS011;59266;52.608;13.260;2023-08-01T06:20:00;6.32;;;2.55;;
71462;SDS011;59266;52.608;13.260;2023-08-01T06:22:30;6.55;;;2.53;;
71462;SDS011;59266;52.608;13.260;2023-08-01T06:24:58;7.32;;;2.90;;
71462;SDS011;59266;52.608;13.260;2023-08-01T06:27:24;6.22;;;2.60;;
71462;SDS011;59266;52.608;13.260;2023-08-01T06:29:51;6.07;;;2.50;;
71462;SDS011;59266;52.608;13.260;2023-08-01T06:32:18;9.18;;;2.67;;
71462;SDS011;59266;52.608;13.260;2023-08-01T06:34:45;9.77;;;2.72;;
71462;SDS011;59266;52.608;13.260;2023-08-01T06:37:11;7.15;;;3.03;;
71462;SDS011;59266;52.608;13.260;2023-08-01T06:39:38;8.23;;;2.55;;
71462;SDS011;59266;52.608;13.260;2023-08-01T06:42:04;8.30;;;2.88;;
71462;SDS011;59266;52.608;13.260;2023-08-01T06:44:31;7.18;;;2.70;;
71462;SDS011;59266;52.608;13.260;2023-08-01T06:47:00;6.90;;;2.63;;
71462;SDS011;59266;52.608;13.260;2023-08-01T06:49:27;7.63;;;2.70;;
71462;SDS011;59266;52.608;13.260;2023-08-01T06:51:53;8.13;;;2.85;;
71462;SDS011;59266;52.608;13.260;2023-08-01T06:54:20;8.02;;;2.80;;
71462;SDS011;59266;52.608;13.260;2023-08-01T06:56:47;6.60;;;2.60;;
71462;SDS011;59266;52.608;13.260;2023-08-01T06:59:14;6.82;;;2.25;;
71462;SDS011;59266;52.608;13.260;2023-08-01T07:01:41;6.70;;;2.17;;
71462;SDS011;59266;52.608;13.260;2023-08-01T07:04:10;6.18;;;2.42;;
71462;SDS011;59266;52.608;13.260;2023-08-01T07:06:37;6.93;;;2.47;;
71462;SDS011;59266;52.608;13.260;2023-08-01T07:09:04;6.28;;;2.20;;
71462;SDS011;59266;52.608;13.260;2023-08-01T07:11:31;6.15;;;2.08;;
71462;SDS011;59266;52.608;13.260;2023-08-01T07:13:58;5.60;;;2.08;;
71462;SDS011;59266;52.608;13.260;2023-08-01T07:16:25;5.70;;;2.25;;
71462;SDS011;59266;52.608;13.260;2023-08-01T07:18:51;6.10;;;2.28;;
71462;SDS011;59266;52.608;13.260;2023-08-01T07:21:18;6.90;;;2.03;;
71462;SDS011;59266;52.608;13.260;2023-08-01T07:23:45;7.38;;;1.92;;
71462;SDS011;59266;52.608;13.260;2023-08-01T07:26:13;5.00;;;1.92;;
71462;SDS011;59266;52.608;13.260;2023-08-01T07:28:40;5.95;;;2.20;;
71462;SDS011;59266;52.608;13.260;2023-08-01T07:31:06;9.00;;;2.30;;
71462;SDS011;59266;52.608;13.260;2023-08-01T07:33:33;6.53;;;2.42;;
71462;SDS011;59266;52.608;13.260;2023-08-01T07:36:01;5.90;;;2.30;;
71462;SDS011;59266;52.608;13.260;2023-08-01T07:38:28;6.90;;;1.85;;
71462;SDS011;59266;52.608;13.260;2023-08-01T07:40:54;4.95;;;1.75;;
71462;SDS011;59266;52.608;13.260;2023-08-01T07:43:21;6.18;;;2.20;;
71462;SDS011;59266;52.608;13.260;2023-08-01T07:45:48;7.00;;;2.13;;
71462;SDS011;59266;52.608;13.260;2023-08-01T07:48:17;5.10;;;1.80;;
71462;SDS011;59266;52.608;13.260;2023-08-01T07:50:43;7.00;;;2.05;;
71462;SDS011;59266;52.608;13.260;2023-08-01T07:53:10;4.65;;;1.73;;
71462;SDS011;59266;52.608;13.260;2023-08-01T07:55:36;5.65;;;1.90;;
71462;SDS011;59266;52.608;13.260;2023-08-01T07:58:03;5.38;;;2.00;;
71462;SDS011;59266;52.608;13.260;2023-08-01T08:00:31;5.28;;;1.63;;
71462;SDS011;59266;52.608;13.260;2023-08-01T08:02:57;6.10;;;1.70;;
71462;SDS011;59266;52.608;13.260;2023-08-01T08:05:24;5.22;;;1.75;;
71462;SDS011;59266;52.608;13.260;2023-08-01T08:07:51;7.85;;;1.90;;
71462;SDS011;59266;52.608;13.260;2023-08-01T08:10:18;4.07;;;1.75;;
71462;SDS011;59266;52.608;13.260;2023-08-01T08:12:44;5.00;;;1.60;;
71462;SDS011;59266;52.608;13.260;2023-08-01T08:15:12;4.95;;;1.60;;
71462;SDS011;59266;52.608;13.260;2023-08-01T08:17:40;5.85;;;1.80;;
71462;SDS011;59266;52.608;13.260;2023-08-01T08:20:07;6.57;;;1.70;;
71462;SDS011;59266;52.608;13.260;2023-08-01T08:22:34;4.57;;;1.63;;
71462;SDS011;59266;52.608;13.260;2023-08-01T08:25:02;6.47;;;1.88;;
71462;SDS011;59266;52.608;13.260;2023-08-01T08:30:00;4.97;;;1.65;;
71462;SDS011;59266;52.608;13.260;2023-08-01T08:32:26;6.25;;;1.90;;
71462;SDS011;59266;52.608;13.260;2023-08-01T08:34:53;5.53;;;1.70;;
71462;SDS011;59266;52.608;13.260;2023-08-01T08:37:20;5.65;;;1.60;;
71462;SDS011;59266;52.608;13.260;2023-08-01T08:39:49;5.28;;;1.70;;
71462;SDS011;59266;52.608;13.260;2023-08-01T08:42:17;4.47;;;1.38;;
71462;SDS011;59266;52.608;13.260;2023-08-01T08:44:45;8.95;;;1.90;;
71462;SDS011;59266;52.608;13.260;2023-08-01T08:47:19;6.30;;;1.90;;
71462;SDS011;59266;52.608;13.260;2023-08-01T08:49:51;6.90;;;1.60;;
71462;SDS011;59266;52.608;13.260;2023-08-01T08:52:21;5.03;;;1.58;;
71462;SDS011;59266;52.608;13.260;2023-08-01T08:54:47;6.07;;;1.77;;
71462;SDS011;59266;52.608;13.260;2023-08-01T08:57:15;4.55;;;1.33;;
71462;SDS011;59266;52.608;13.260;2023-08-01T08:59:42;5.10;;;1.58;;
71462;SDS011;59266;52.608;13.260;2023-08-01T09:02:10;4.10;;;1.60;;
71462;SDS011;59266;52.608;13.260;2023-08-01T09:04:36;4.20;;;1.42;;
71462;SDS011;59266;52.608;13.260;2023-08-01T09:07:06;5.15;;;1.45;;
71462;SDS011;59266;52.608;13.260;2023-08-01T09:09:35;6.05;;;1.50;;
71462;SDS011;59266;52.608;13.260;2023-08-01T09:12:02;4.40;;;1.30;;
71462;SDS011;59266;52.608;13.260;2023-08-01T09:14:28;5.00;;;1.70;;
71462;SDS011;59266;52.608;13.260;2023-08-01T09:16:55;4.45;;;1.25;;
71462;SDS011;59266;52.608;13.260;2023-08-01T09:21:59;4.80;;;1.40;;
71462;SDS011;59266;52.608;13.260;2023-08-01T09:24:25;3.78;;;1.20;;
71462;SDS011;59266;52.608;13.260;2023-08-01T09:26:52;4.28;;;1.30;;
71462;SDS011;59266;52.608;13.260;2023-08-01T09:29:27;4.20;;;1.20;;
71462;SDS011;59266;52.608;13.260;2023-08-01T09:31:54;4.15;;;1.10;;
71462;SDS011;59266;52.608;13.260;2023-08-01T09:34:24;3.08;;;1.02;;
71462;SDS011;59266;52.608;13.260;2023-08-01T09:36:57;2.17;;;0.90;;
71462;SDS011;59266;52.608;13.260;2023-08-01T09:39:25;3.42;;;1.00;;
71462;SDS011;59266;52.608;13.260;2023-08-01T09:41:58;5.07;;;1.00;;
71462;SDS011;59266;52.608;13.260;2023-08-01T09:44:26;2.70;;;0.90;;
71462;SDS011;59266;52.608;13.260;2023-08-01T09:46:59;2.75;;;1.00;;
71462;SDS011;59266;52.608;13.260;2023-08-01T09:49:28;2.28;;;0.88;;
71462;SDS011;59266;52.608;13.260;2023-08-01T09:51:55;3.13;;;1.05;;
71462;SDS011;59266;52.608;13.260;2023-08-01T09:54:22;5.63;;;1.55;;
71462;SDS011;59266;52.608;13.260;2023-08-01T09:56:49;1.92;;;0.90;;
71462;SDS011;59266;52.608;13.260;2023-08-01T09:59:19;1.45;;;0.75;;
71462;SDS011;59266;52.608;13.260;2023-08-01T10:01:48;3.83;;;0.88;;
71462;SDS011;59266;52.608;13.260;2023-08-01T10:04:29;2.30;;;1.02;;
71462;SDS011;59266;52.608;13.260;2023-08-01T10:06:57;2.47;;;0.90;;
71462;SDS011;59266;52.608;13.260;2023-08-01T10:09:25;3.95;;;0.88;;
71462;SDS011;59266;52.608;13.260;2023-08-01T10:11:53;2.83;;;1.15;;
71462;SDS011;59266;52.608;13.260;2023-08-01T10:14:22;3.00;;;1.10;;
71462;SDS011;59266;52.608;13.260;2023-08-01T10:16:51;2.55;;;0.98;;
71462;SDS011;59266;52.608;13.260;2023-08-01T10:19:18;3.35;;;1.27;;
71462;SDS011;59266;52.608;13.260;2023-08-01T10:21:46;3.58;;;1.15;;
71462;SDS011;59266;52.608;13.260;2023-08-01T10:24:14;2.90;;;1.10;;
71462;SDS011;59266;52.608;13.260;2023-08-01T10:26:47;3.78;;;1.20;;
71462;SDS011;59266;52.608;13.260;2023-08-01T10:29:14;3.17;;;1.10;;
71462;SDS011;59266;52.608;13.260;2023-08-01T10:31:50;3.33;;;1.33;;
71462;SDS011;59266;52.608;13.260;2023-08-01T10:34:27;4.97;;;1.30;;
71462;SDS011;59266;52.608;13.260;2023-08-01T10:36:57;2.25;;;1.00;;
71462;SDS011;59266;52.608;13.260;2023-08-01T10:39:56;3.17;;;1.10;;
71462;SDS011;59266;52.608;13.260;2023-08-01T10:42:25;3.60;;;1.20;;
71462;SDS011;59266;52.608;13.260;2023-08-01T10:45:03;4.15;;;1.17;;
71462;SDS011;59266;52.608;13.260;2023-08-01T10:47:39;4.35;;;1.10;;
71462;SDS011;59266;52.608;13.260;2023-08-01T10:50:17;2.42;;;0.93;;
71462;SDS011;59266;52.608;13.260;2023-08-01T10:52:44;4.00;;;1.10;;
71462;SDS011;59266;52.608;13.260;2023-08-01T10:55:12;2.70;;;0.88;;
71462;SDS011;59266;52.608;13.260;2023-08-01T10:57:47;4.18;;;1.45;;
71462;SDS011;59266;52.608;13.260;2023-08-01T11:00:17;4.13;;;1.38;;
71462;SDS011;59266;52.608;13.260;2023-08-01T11:02:50;5.18;;;1.70;;
71462;SDS011;59266;52.608;13.260;2023-08-01T11:05:20;10.55;;;2.10;;
71462;SDS011;59266;52.608;13.260;2023-08-01T11:07:53;7.75;;;2.00;;
71462;SDS011;59266;52.608;13.260;2023-08-01T11:10:21;11.02;;;2.65;;
71462;SDS011;59266;52.608;13.260;2023-08-01T11:12:48;6.55;;;2.00;;
71462;SDS011;59266;52.608;13.260;2023-08-01T11:15:14;6.45;;;1.80;;
71462;SDS011;59266;52.608;13.260;2023-08-01T11:17:42;10.43;;;2.10;;
71462;SDS011;59266;52.608;13.260;2023-08-01T11:20:13;7.43;;;1.92;;
71462;SDS011;59266;52.608;13.260;2023-08-01T11:25:31;6.30;;;1.85;;
71462;SDS011;59266;52.608;13.260;2023-08-01T11:30:38;6.55;;;2.30;;
71462;SDS011;59266;52.608;13.260;2023-08-01T11:33:23;6.28;;;2.40;;
71462;SDS011;59266;52.608;13.260;2023-08-01T11:35:50;7.28;;;2.20;;
71462;SDS011;59266;52.608;13.260;2023-08-01T11:38:24;5.07;;;2.05;;
71462;SDS011;59266;52.608;13.260;2023-08-01T11:40:52;6.22;;;2.17;;
71462;SDS011;59266;52.608;13.260;2023-08-01T11:43:19;5.47;;;2.10;;
71462;SDS011;59266;52.608;13.260;2023-08-01T11:45:52;5.53;;;2.08;;
71462;SDS011;59266;52.608;13.260;2023-08-01T11:48:21;6.05;;;1.90;;
71462;SDS011;59266;52.608;13.260;2023-08-01T11:50:49;6.40;;;2.00;;
71462;SDS011;59266;52.608;13.260;2023-08-01T11:53:19;6.75;;;2.30;;
71462;SDS011;59266;52.608;13.260;2023-08-01T11:55:49;5.05;;;1.70;;
71462;SDS011;59266;52.608;13.260;2023-08-01T11:58:29;6.43;;;2.08;;
71462;SDS011;59266;52.608;13.260;2023-08-01T12:01:13;8.63;;;2.53;;
71462;SDS011;59266;52.608;13.260;2023-08-01T12:03:44;5.15;;;1.85;;
71462;SDS011;59266;52.608;13.260;2023-08-01T12:06:18;5.45;;;2.10;;
71462;SDS011;59266;52.608;13.260;2023-08-01T12:08:48;6.90;;;2.30;;
71462;SDS011;59266;52.608;13.260;2023-08-01T12:14:07;8.40;;;2.78;;
71462;SDS011;59266;52.608;13.260;2023-08-01T12:16:38;6.85;;;2.25;;
71462;SDS011;59266;52.608;13.260;2023-08-01T12:19:18;6.40;;;2.20;;
71462;SDS011;59266;52.608;13.260;2023-08-01T12:21:47;6.70;;;2.35;;
71462;SDS011;59266;52.608;13.260;2023-08-01T12:24:15;7.30;;;2.55;;
71462;SDS011;59266;52.608;13.260;2023-08-01T12:26:41;6.05;;;2.50;;
71462;SDS011;59266;52.608;13.260;2023-08-01T12:29:08;6.63;;;2.42;;
71462;SDS011;59266;52.608;13.260;2023-08-01T12:31:36;8.52;;;2.40;;
71462;SDS011;59266;52.608;13.260;2023-08-01T12:34:03;7.78;;;2.50;;
71462;SDS011;59266;52.608;13.260;2023-08-01T12:36:30;10.40;;;2.70;;
71462;SDS011;59266;52.608;13.260;2023-08-01T12:38:57;8.20;;;2.38;;
71462;SDS011;59266;52.608;13.260;2023-08-01T12:41:24;9.52;;;2.58;;
71462;SDS011;59266;52.608;13.260;2023-08-01T12:43:51;9.23;;;2.58;;
71462;SDS011;59266;52.608;13.260;2023-08-01T12:46:17;7.75;;;2.60;;
71462;SDS011;59266;52.608;13.260;2023-08-01T12:48:44;9.18;;;2.72;;
71462;SDS011;59266;52.608;13.260;2023-08-01T12:51:11;6.57;;;2.60;;
71462;SDS011;59266;52.608;13.260;2023-08-01T12:53:37;7.80;;;2.70;;
71462;SDS011;59266;52.608;13.260;2023-08-01T12:56:06;5.97;;;2.28;;
71462;SDS011;59266;52.608;13.260;2023-08-01T12:58:32;6.07;;;2.60;;
71462;SDS011;59266;52.608;13.260;2023-08-01T13:00:59;7.55;;;2.40;;
71462;SDS011;59266;52.608;13.260;2023-08-01T13:03:30;8.07;;;2.65;;
71462;SDS011;59266;52.608;13.260;2023-08-01T13:05:57;7.25;;;2.33;;
71462;SDS011;59266;52.608;13.260;2023-08-01T13:08:24;7.47;;;2.58;;
71462;SDS011;59266;52.608;13.260;2023-08-01T13:10:52;7.43;;;2.33;;
71462;SDS011;59266;52.608;13.260;2023-08-01T13:13:19;6.78;;;2.40;;
71462;SDS011;59266;52.608;13.260;2023-08-01T13:15:45;8.20;;;2.45;;
71462;SDS011;59266;52.608;13.260;2023-08-01T13:18:13;7.10;;;2.40;;
71462;SDS011;59266;52.608;13.260;2023-08-01T13:20:40;5.57;;;2.00;;
71462;SDS011;59266;52.608;13.260;2023-08-01T13:23:07;6.00;;;2.30;;
71462;SDS011;59266;52.608;13.260;2023-08-01T13:25:34;7.30;;;2.35;;
71462;SDS011;59266;52.608;13.260;2023-08-01T13:28:01;8.18;;;2.45;;
71462;SDS011;59266;52.608;13.260;2023-08-01T13:30:28;7.10;;;2.28;;
71462;SDS011;59266;52.608;13.260;2023-08-01T13:32:55;7.15;;;2.53;;
71462;SDS011;59266;52.608;13.260;2023-08-01T13:35:21;6.70;;;2.70;;
71462;SDS011;59266;52.608;13.260;2023-08-01T13:37:48;8.07;;;2.30;;
71462;SDS011;59266;52.608;13.260;2023-08-01T13:40:15;6.72;;;2.70;;
71462;SDS011;59266;52.608;13.260;2023-08-01T13:42:42;5.60;;;2.30;;
71462;SDS011;59266;52.608;13.260;2023-08-01T13:45:08;7.55;;;2.38;;
71462;SDS011;59266;52.608;13.260;2023-08-01T13:47:35;7.07;;;2.20;;
71462;SDS011;59266;52.608;13.260;2023-08-01T13:50:02;6.80;;;2.08;;
71462;SDS011;59266;52.608;13.260;2023-08-01T13:52:28;6.25;;;2.13;;
71462;SDS011;59266;52.608;13.260;2023-08-01T13:54:55;8.18;;;2.50;;
71462;SDS011;59266;52.608;13.260;2023-08-01T13:57:22;5.80;;;2.00;;
71462;SDS011;59266;52.608;13.260;2023-08-01T13:59:50;7.88;;;2.80;;
71462;SDS011;59266;52.608;13.260;2023-08-01T14:02:35;7.63;;;2.42;;
71462;SDS011;59266;52.608;13.260;2023-08-01T14:05:02;7.47;;;2.55;;
71462;SDS011;59266;52.608;13.260;2023-08-01T14:07:29;8.18;;;2.38;;
71462;SDS011;59266;52.608;13.260;2023-08-01T14:09:55;7.50;;;2.50;;
71462;SDS011;59266;52.608;13.260;2023-08-01T14:12:22;7.80;;;2.53;;
71462;SDS011;59266;52.608;13.260;2023-08-01T14:14:50;6.88;;;2.38;;
71462;SDS011;59266;52.608;13.260;2023-08-01T14:17:18;10.88;;;2.65;;
71462;SDS011;59266;52.608;13.260;2023-08-01T14:19:45;6.70;;;2.10;;
71462;SDS011;59266;52.608;13.260;2023-08-01T14:22:11;5.78;;;2.22;;
71462;SDS011;59266;52.608;13.260;2023-08-01T14:24:38;7.35;;;2.40;;
71462;SDS011;59266;52.608;13.260;2023-08-01T14:27:04;5.38;;;2.03;;
71462;SDS011;59266;52.608;13.260;2023-08-01T14:29:31;6.93;;;2.20;;
71462;SDS011;59266;52.608;13.260;2023-08-01T14:31:57;6.28;;;2.10;;
71462;SDS011;59266;52.608;13.260;2023-08-01T14:34:24;7.45;;;2.40;;
71462;SDS011;59266;52.608;13.260;2023-08-01T14:36:50;6.00;;;2.00;;
71462;SDS011;59266;52.608;13.260;2023-08-01T14:39:17;5.72;;;2.13;;
71462;SDS011;59266;52.608;13.260;2023-08-01T14:41:49;6.00;;;2.25;;
71462;SDS011;59266;52.608;13.260;2023-08-01T14:46:45;6.93;;;1.98;;
71462;SDS011;59266;52.608;13.260;2023-08-01T14:49:12;5.97;;;2.10;;
71462;SDS011;59266;52.608;13.260;2023-08-01T14:51:38;6.05;;;1.90;;
71462;SDS011;59266;52.608;13.260;2023-08-01T14:54:05;5.15;;;1.83;;